Time;durP1;ratioP1;P1;durP2;ratioP2;P2;SDS_P1;SDS_P2;PMS_P1;PMS_P2;Temp;Humidity;BMP_temperature;BMP_pressure;BME280_temperature;BME280_humidity;BME280_pressure;Samples;Min_cycle;Max_cycle;Signal;HPM_P1;HPM_P2
2022/08/09 00:01:30;;;;;;;2.80;1.73;;;;;;;21.10;68.21;100055.50;4476174;32;33731;-77
2022/08/09 00:04:20;;;;;;;2.90;1.90;;;;;;;21.11;68.71;100043.16;4466423;32;33291;-78
2022/08/09 00:07:04;;;;;;;3.25;1.60;;;;;;;21.08;68.92;100059.16;4464785;32;33443;-80
2022/08/09 00:09:40;;;;;;;3.83;1.90;;;;;;;20.86;68.83;100056.75;4473210;32;33382;-77
2022/08/09 00:12:09;;;;;;;3.92;1.90;;;;;;;20.86;68.81;100060.22;4476630;32;34786;-79
2022/08/09 00:14:50;;;;;;;5.95;2.35;;;;;;;21.00;67.98;100056.06;4464887;32;33642;-78
2022/08/09 00:17:24;;;;;;;2.72;1.42;;;;;;;20.97;67.74;100049.16;4464027;32;33186;-80
2022/08/09 00:20:13;;;;;;;3.37;2.03;;;;;;;21.19;67.07;100048.91;4466249;32;33941;-78
2022/08/09 00:22:42;;;;;;;3.28;1.70;;;;;;;21.00;67.56;100061.34;4473737;32;35015;-78
2022/08/09 00:25:16;;;;;;;3.28;1.70;;;;;;;20.94;67.67;100057.19;4468108;32;33155;-77
2022/08/09 00:27:59;;;;;;;4.20;2.05;;;;;;;21.08;67.80;100048.59;4468690;32;33284;-78
2022/08/09 00:30:32;;;;;;;4.30;2.28;;;;;;;20.82;68.63;100048.13;4474081;32;33838;-77
2022/08/09 00:33:01;;;;;;;3.17;1.77;;;;;;;20.94;68.21;100044.00;4469221;32;33881;-80
2022/08/09 00:35:31;;;;;;;3.73;2.00;;;;;;;20.95;68.08;100052.78;4478528;32;33662;-78
2022/08/09 00:38:12;;;;;;;3.87;1.75;;;;;;;20.63;69.29;100055.22;4484216;32;33392;-78
2022/08/09 00:40:44;;;;;;;3.03;1.80;;;;;;;20.71;68.88;100053.09;4471399;32;33600;-81
2022/08/09 00:43:20;;;;;;;4.50;1.85;;;;;;;20.72;69.15;100044.25;4465613;32;34060;-78
2022/08/09 00:46:09;;;;;;;6.10;2.15;;;;;;;20.83;68.94;100054.28;4465814;32;33811;-80
2022/08/09 00:48:42;;;;;;;3.70;2.15;;;;;;;20.83;68.42;100052.47;4471315;32;33506;-79
2022/08/09 00:51:17;;;;;;;3.80;2.50;;;;;;;20.94;68.05;100046.66;4469768;32;33656;-80
2022/08/09 00:53:47;;;;;;;5.73;2.30;;;;;;;21.03;67.61;100040.06;4479909;32;33320;-80
2022/08/09 00:56:21;;;;;;;4.93;2.00;;;;;;;20.86;68.32;100041.78;4485590;32;34672;-79
2022/08/09 00:58:50;;;;;;;3.53;2.30;;;;;;;20.84;68.21;100042.78;4469289;32;32658;-80
2022/08/09 01:01:24;;;;;;;3.67;2.10;;;;;;;20.59;68.91;100029.97;4467612;32;33700;-80
2022/08/09 01:04:05;;;;;;;3.60;2.35;;;;;;;20.80;68.40;100031.53;4474487;32;34085;-77
2022/08/09 01:06:38;;;;;;;4.20;2.67;;;;;;;20.95;67.42;100015.84;4470764;32;34401;-79
2022/08/09 01:09:29;;;;;;;4.72;2.33;;;;;;;20.82;67.62;100031.44;4478641;32;34165;-81
2022/08/09 01:12:08;;;;;;;;;;;;;;;20.91;67.57;100041.53;4483497;32;34405;-80
2022/08/09 01:14:43;;;;;;;3.30;2.05;;;;;;;21.03;66.60;100040.91;4484293;32;35053;-80
2022/08/09 01:17:22;;;;;;;4.20;2.58;;;;;;;20.82;67.05;100048.13;4479988;32;33907;-78
2022/08/09 01:19:56;;;;;;;5.03;2.55;;;;;;;20.49;66.84;100034.81;4480437;32;34060;-78
2022/08/09 01:23:06;;;;;;;12.20;2.45;;;;;;;20.68;65.16;100040.03;4474090;32;34477;-80
2022/08/09 01:26:02;;;;;;;4.70;2.87;;;;;;;20.25;66.81;100040.31;4417925;32;33904;-79
2022/08/09 01:28:33;;;;;;;5.37;3.30;;;;;;;20.24;67.33;100040.37;4404561;32;33086;-78
2022/08/09 01:31:04;;;;;;;4.97;2.58;;;;;;;20.26;67.69;100028.00;4415768;32;33293;-79
2022/08/09 01:33:35;;;;;;;;;;;;;;;20.39;67.25;100029.12;4423769;32;33564;-79
2022/08/09 01:36:09;;;;;;;5.70;2.87;;;;;;;20.45;67.12;100020.06;4426718;32;34299;-78
2022/08/09 01:38:43;;;;;;;4.50;2.50;;;;;;;20.42;67.29;100028.97;4423678;32;34592;-78
2022/08/09 01:41:16;;;;;;;7.70;3.95;;;;;;;20.56;67.11;100023.06;4419318;32;33079;-79
2022/08/09 01:43:56;;;;;;;6.55;3.10;;;;;;;20.36;67.54;100024.00;4419164;32;33510;-79
2022/08/09 01:46:28;;;;;;;5.68;2.90;;;;;;;20.40;67.89;100025.56;4420734;32;34598;-78
2022/08/09 01:49:02;;;;;;;4.85;3.17;;;;;;;20.32;67.64;100019.81;4424543;32;34137;-78
2022/08/09 01:51:42;;;;;;;7.10;3.25;;;;;;;20.34;67.42;100019.72;4425654;32;33513;-80
2022/08/09 01:54:24;;;;;;;5.57;3.17;;;;;;;20.32;67.76;100022.44;4420778;32;33889;-80
2022/08/09 01:56:55;;;;;;;5.32;2.72;;;;;;;20.37;67.75;100023.06;4428186;32;33450;-78
2022/08/09 01:59:27;;;;;;;6.37;3.42;;;;;;;20.34;67.81;100017.94;4425775;32;33950;-80
2022/08/09 02:02:00;;;;;;;5.85;3.53;;;;;;;20.27;67.98;100024.41;4457948;32;33197;-78
2022/08/09 02:04:31;;;;;;;4.97;3.10;;;;;;;20.35;67.36;100010.91;4473910;32;33618;-78
2022/08/09 02:07:10;;;;;;;4.62;2.65;;;;;;;20.27;67.75;100011.25;4475294;32;33522;-79
2022/08/09 02:09:46;;;;;;;4.37;2.72;;;;;;;20.09;68.54;100017.41;4478397;32;33576;-78
2022/08/09 02:12:29;;;;;;;4.97;2.53;;;;;;;20.13;68.57;100011.94;4464051;32;33873;-77
2022/08/09 02:15:01;;;;;;;5.28;3.15;;;;;;;20.30;67.55;100008.50;4463681;32;34567;-78
2022/08/09 02:17:34;;;;;;;3.90;2.40;;;;;;;20.15;68.48;100001.31;4463406;32;34029;-79
2022/08/09 02:20:23;;;;;;;4.57;2.97;;;;;;;20.29;68.51;100005.91;4468258;32;33785;-77
2022/08/09 02:22:58;;;;;;;6.87;3.37;;;;;;;20.25;68.63;100000.81;4475694;32;33178;-78
2022/08/09 02:25:31;;;;;;;3.75;2.50;;;;;;;20.38;67.99;99997.56;4470310;32;33801;-78
2022/08/09 02:28:15;;;;;;;6.35;2.95;;;;;;;20.54;66.91;99995.91;4468099;32;32848;-80
2022/08/09 02:30:50;;;;;;;5.12;3.05;;;;;;;20.46;67.10;99988.38;4477128;32;32961;-80
2022/08/09 02:33:21;;;;;;;5.78;3.17;;;;;;;20.38;66.87;99979.97;4476254;32;33110;-78
2022/08/09 02:35:52;;;;;;;7.72;3.62;;;;;;;20.25;67.59;99982.38;4466651;32;34579;-80
2022/08/09 02:38:35;;;;;;;4.82;2.30;;;;;;;20.31;67.36;99983.00;4466275;32;34735;-77
2022/08/09 02:41:08;;;;;;;5.95;2.87;;;;;;;20.20;67.32;99980.88;4468466;32;34015;-79
2022/08/09 02:43:38;;;;;;;6.12;3.05;;;;;;;20.13;67.04;99987.38;4470457;32;33762;-78
2022/08/09 02:46:26;;;;;;;6.87;3.42;;;;;;;20.13;67.65;99987.38;4471503;32;34807;-80
2022/08/09 02:48:58;;;;;;;5.45;3.25;;;;;;;20.15;67.15;99994.28;4478984;32;33509;-77
2022/08/09 02:51:28;;;;;;;5.53;2.87;;;;;;;19.86;67.73;99992.16;4472890;32;34032;-77
2022/08/09 02:54:08;;;;;;;5.53;3.15;;;;;;;20.06;67.56;99993.87;4477261;32;34356;-77
2022/08/09 02:56:41;;;;;;;8.00;3.22;;;;;;;19.98;67.23;99995.09;4465350;32;32989;-79
2022/08/09 02:59:19;;;;;;;5.12;2.97;;;;;;;19.84;68.19;99997.50;4484674;32;33999;-78
2022/08/09 03:02:06;;;;;;;5.32;2.92;;;;;;;19.73;69.12;99999.78;4475882;32;34478;-78
2022/08/09 03:04:44;;;;;;;5.25;2.85;;;;;;;19.72;69.34;99998.06;4467747;32;33247;-80
2022/08/09 03:07:19;;;;;;;4.75;2.80;;;;;;;19.91;68.62;99998.94;4471102;32;34482;-80
2022/08/09 03:09:50;;;;;;;5.00;2.72;;;;;;;19.97;68.33;100001.25;4471138;32;34027;-79
2022/08/09 03:12:27;;;;;;;6.43;3.30;;;;;;;19.94;68.35;100000.56;4475351;32;33567;-77
2022/08/09 03:14:55;;;;;;;;;;;;;;;19.99;68.44;99999.41;4477298;32;33155;-80
2022/08/09 03:17:25;;;;;;;6.82;3.33;;;;;;;20.19;67.02;100003.72;4475530;32;34345;-77
2022/08/09 03:19:58;;;;;;;8.48;3.42;;;;;;;20.01;68.02;100007.25;4478467;32;34143;-80
2022/08/09 03:22:36;;;;;;;7.00;3.35;;;;;;;19.87;68.67;100007.88;4462934;32;33892;-78
2022/08/09 03:25:13;;;;;;;6.95;3.53;;;;;;;19.84;68.81;100008.03;4465867;32;33970;-79
2022/08/09 03:28:04;;;;;;;5.55;3.50;;;;;;;19.71;69.29;100009.50;4477114;32;35365;-77
2022/08/09 03:30:41;;;;;;;5.35;3.25;;;;;;;19.93;68.08;100002.31;4472257;32;33904;-78
2022/08/09 03:33:13;;;;;;;5.90;3.47;;;;;;;19.97;67.80;100003.88;4476272;32;33992;-78
2022/08/09 03:35:50;;;;;;;4.70;2.65;;;;;;;19.94;68.04;100011.09;4471082;32;33012;-77
2022/08/09 03:38:41;;;;;;;7.70;3.42;;;;;;;20.02;68.00;100014.22;4457756;32;233816;-79
2022/08/09 03:41:13;;;;;;;5.37;2.87;;;;;;;19.94;68.07;100011.94;4470039;32;32888;-78
2022/08/09 03:43:46;;;;;;;5.35;3.22;;;;;;;19.79;68.67;100015.31;4468852;32;33678;-78
2022/08/09 03:46:35;;;;;;;6.68;3.00;;;;;;;19.94;68.13;100014.56;4467891;32;33872;-77
2022/08/09 03:49:08;;;;;;;6.62;3.67;;;;;;;19.99;68.07;100014.38;4470180;32;34789;-78
2022/08/09 03:51:40;;;;;;;7.32;3.00;;;;;;;19.96;68.59;100010.09;4476433;32;33803;-78
2022/08/09 03:54:30;;;;;;;5.78;3.22;;;;;;;20.21;67.04;100015.03;4481462;32;33879;-78
2022/08/09 03:57:05;;;;;;;6.62;3.28;;;;;;;20.27;66.45;100003.34;4476689;32;33418;-79
2022/08/09 03:59:52;;;;;;;6.85;3.80;;;;;;;19.97;67.72;100014.44;4469016;32;34237;-79
2022/08/09 04:02:31;;;;;;;6.47;2.92;;;;;;;20.08;67.36;100002.53;4466115;32;32045;-80
2022/08/09 04:05:06;;;;;;;7.18;4.18;;;;;;;20.11;66.92;100005.03;4457125;32;33639;-78
2022/08/09 04:07:54;;;;;;;5.57;3.33;;;;;;;20.33;65.67;100004.84;4449864;32;32692;-79
2022/08/09 04:10:25;;;;;;;6.90;3.17;;;;;;;20.25;65.92;100006.06;4447576;32;32971;-78
2022/08/09 04:13:08;;;;;;;5.30;3.03;;;;;;;20.07;66.87;100019.25;4451751;32;32189;-78
2022/08/09 04:15:39;;;;;;;7.55;3.33;;;;;;;20.03;66.82;100016.78;4476700;32;33957;-79
2022/08/09 04:18:28;;;;;;;7.57;3.78;;;;;;;20.07;66.64;100017.47;4471794;32;33416;-81
2022/08/09 04:20:58;;;;;;;6.47;3.53;;;;;;;19.87;67.45;100009.66;4469047;32;33817;-79
2022/08/09 04:23:27;;;;;;;6.37;3.37;;;;;;;19.99;67.00;100015.22;4466376;32;34024;-78
2022/08/09 04:25:55;;;;;;;7.12;3.95;;;;;;;19.95;67.62;100015.41;4462281;32;33925;-77
2022/08/09 04:28:25;;;;;;;5.85;3.78;;;;;;;20.02;67.36;100028.22;4470111;32;33443;-77
2022/08/09 04:31:05;;;;;;;5.85;3.50;;;;;;;19.98;67.82;100026.69;4468875;32;34433;-78
2022/08/09 04:33:38;;;;;;;6.93;3.78;;;;;;;20.10;67.47;100030.50;4476842;31;32792;-78
2022/08/09 04:36:24;;;;;;;4.90;3.12;;;;;;;20.22;67.02;100035.22;4473254;32;33611;-80
2022/08/09 04:38:54;;;;;;;7.65;3.70;;;;;;;20.18;67.85;100032.78;4473524;31;32911;-77
2022/08/09 04:41:23;;;;;;;5.53;3.05;;;;;;;20.32;66.46;100042.66;4480732;31;33594;-78
2022/08/09 04:44:02;;;;;;;6.22;3.92;;;;;;;20.21;67.21;100037.91;4478596;31;33873;-78
2022/08/09 04:46:35;;;;;;;7.25;4.07;;;;;;;20.13;67.30;100033.00;4485027;31;33817;-78
2022/08/09 04:49:24;;;;;;;6.35;3.50;;;;;;;20.16;67.67;100038.13;4480606;32;33144;-77
2022/08/09 04:52:14;;;;;;;6.40;3.60;;;;;;;20.29;67.27;100041.00;4473647;32;34499;-77
2022/08/09 04:54:55;;;;;;;7.07;3.50;;;;;;;20.29;67.42;100040.16;4468582;32;34009;-80
2022/08/09 04:57:24;;;;;;;6.45;3.78;;;;;;;20.31;67.76;100036.53;4474568;32;33601;-78
2022/08/09 04:59:54;;;;;;;8.40;3.62;;;;;;;20.30;67.25;100041.91;4464634;32;34121;-79
2022/08/09 05:02:24;;;;;;;6.80;3.90;;;;;;;20.22;67.42;100036.97;4474981;32;33341;-78
2022/08/09 05:04:55;;;;;;;6.30;3.80;;;;;;;20.49;66.60;100040.09;4467145;32;34526;-80
2022/08/09 05:07:25;;;;;;;5.85;3.22;;;;;;;20.63;66.26;100042.06;4466348;31;33983;-79
2022/08/09 05:09:59;;;;;;;7.43;3.95;;;;;;;20.73;64.86;100043.34;4480628;31;33474;-78
2022/08/09 05:12:31;;;;;;;7.47;3.87;;;;;;;20.72;64.54;100038.97;4462359;32;33697;-80
2022/08/09 05:15:02;;;;;;;5.45;3.50;;;;;;;20.51;65.46;100042.62;4475279;31;34607;-78
2022/08/09 05:17:40;;;;;;;9.02;3.90;;;;;;;20.54;65.67;100045.09;4467111;31;33842;-78
2022/08/09 05:20:28;;;;;;;6.80;3.78;;;;;;;21.07;64.11;100033.72;4481551;32;33087;-78
2022/08/09 05:23:00;;;;;;;8.00;4.10;;;;;;;21.55;62.58;100042.66;4481766;31;34936;-77
2022/08/09 05:25:48;;;;;;;6.80;4.10;;;;;;;22.07;59.29;100045.13;4483624;31;33783;-77
2022/08/09 05:28:19;;;;;;;6.90;3.87;;;;;;;22.19;59.15;100037.47;4479446;31;34169;-79
2022/08/09 05:30:48;;;;;;;5.95;3.33;;;;;;;22.07;59.76;100044.28;4484628;31;33212;-78
2022/08/09 05:33:19;;;;;;;7.12;3.25;;;;;;;22.25;59.36;100051.19;4477178;31;34917;-79
2022/08/09 05:36:02;;;;;;;7.05;4.10;;;;;;;22.25;60.02;100045.91;4471540;31;34003;-79
2022/08/09 05:38:36;;;;;;;7.07;3.78;;;;;;;22.45;59.60;100052.75;4478846;32;33862;-79
2022/08/09 05:41:06;;;;;;;6.40;4.30;;;;;;;22.66;58.53;100053.28;4474447;32;34137;-79
2022/08/09 05:43:40;;;;;;;5.22;3.45;;;;;;;22.79;58.40;100053.47;4474464;32;33828;-78
2022/08/09 05:46:14;;;;;;;8.43;4.57;;;;;;;22.65;58.57;100046.31;4467684;32;33611;-79
2022/08/09 05:48:43;;;;;;;5.65;3.50;;;;;;;22.33;59.85;100050.81;4481971;31;36196;-79
2022/08/09 05:51:16;;;;;;;5.90;3.28;;;;;;;22.32;59.78;100055.22;4471286;32;33246;-80
2022/08/09 05:54:06;;;;;;;7.30;3.60;;;;;;;22.12;61.36;100053.66;4479381;31;33638;-79
2022/08/09 05:56:39;;;;;;;6.72;3.67;;;;;;;22.45;59.53;100052.75;4469014;32;33904;-79
2022/08/09 05:59:23;;;;;;;7.55;3.75;;;;;;;22.24;60.23;100049.50;4472602;32;34549;-79
2022/08/09 06:01:53;;;;;;;5.67;3.23;;;;;;;22.27;60.48;100056.41;4469096;32;32908;-79
2022/08/09 06:04:27;;;;;;;7.37;3.70;;;;;;;22.51;59.99;100044.44;4477014;32;34364;-79
2022/08/09 06:07:03;;;;;;;5.18;3.33;;;;;;;22.51;59.51;100054.19;4472775;31;33751;-79
2022/08/09 06:09:33;;;;;;;6.37;3.30;;;;;;;22.55;59.03;100047.78;4478703;32;34048;-79
2022/08/09 06:12:22;;;;;;;6.78;3.47;;;;;;;22.29;60.08;100051.91;4477805;32;33638;-77
2022/08/09 06:14:54;;;;;;;5.70;3.03;;;;;;;22.42;59.14;100055.53;4469657;32;33453;-78
2022/08/09 06:17:28;;;;;;;6.20;2.87;;;;;;;22.42;60.13;100052.91;4471025;32;34567;-78
2022/08/09 06:20:09;;;;;;;6.80;2.87;;;;;;;22.56;59.63;100047.69;4485306;31;33581;-79
2022/08/09 06:22:38;;;;;;;10.48;3.12;;;;;;;22.79;59.09;100048.16;4481281;31;33977;-79
2022/08/09 06:25:09;;;;;;;5.87;3.28;;;;;;;22.73;58.58;100046.72;4484851;31;33275;-79
2022/08/09 06:27:44;;;;;;;5.87;3.08;;;;;;;22.79;59.18;100050.81;4473704;31;35538;-78
2022/08/09 06:30:19;;;;;;;5.18;2.75;;;;;;;23.02;58.62;100048.62;4469671;31;33487;-79
2022/08/09 06:32:50;;;;;;;5.10;2.72;;;;;;;23.24;58.04;100046.41;4482983;31;33346;-80
2022/08/09 06:35:29;;;;;;;4.47;2.63;;;;;;;23.36;59.13;100050.13;4479666;31;33598;-80
2022/08/09 06:38:17;;;;;;;6.55;2.95;;;;;;;23.48;57.35;100051.16;4482285;31;33987;-79
2022/08/09 06:40:48;;;;;;;5.65;2.80;;;;;;;23.54;54.92;100053.44;4487213;31;34460;-78
2022/08/09 06:43:22;;;;;;;5.50;3.30;;;;;;;23.02;56.99;100051.28;4479719;31;33319;-79
2022/08/09 06:45:53;;;;;;;3.80;2.22;;;;;;;23.52;56.05;100058.84;4466058;31;33993;-79
2022/08/09 06:48:35;;;;;;;6.30;2.45;;;;;;;23.59;56.64;100054.03;4462796;31;34031;-79
2022/08/09 06:51:10;;;;;;;5.82;2.70;;;;;;;23.54;58.31;100058.75;4484034;31;33972;-79
2022/08/09 06:53:43;;;;;;;5.90;3.17;;;;;;;23.72;58.25;100062.91;4477488;32;33522;-80
2022/08/09 06:56:13;;;;;;;5.00;2.40;;;;;;;24.05;54.34;100057.31;4483033;32;33753;-79
2022/08/09 06:58:42;;;;;;;5.68;2.35;;;;;;;23.85;56.19;100060.38;4481582;32;33126;-80
2022/08/09 07:01:31;;;;;;;3.87;2.12;;;;;;;24.15;55.67;100062.88;4475770;32;33300;-80
2022/08/09 07:04:20;;;;;;;5.28;2.53;;;;;;;24.25;55.53;100057.84;4478718;32;33627;-79
2022/08/09 07:06:51;;;;;;;4.57;2.37;;;;;;;24.35;56.36;100061.59;4476015;32;32329;-79
2022/08/09 07:09:28;;;;;;;4.57;2.55;;;;;;;24.48;56.34;100054.59;4475722;32;33970;-79
2022/08/09 07:12:18;;;;;;;4.72;2.40;;;;;;;24.48;54.44;100062.56;4474536;32;33706;-80
2022/08/09 07:14:52;;;;;;;4.12;1.95;;;;;;;24.49;52.97;100066.91;4476637;32;33257;-79
2022/08/09 07:17:21;;;;;;;3.33;1.80;;;;;;;24.76;53.08;100060.72;4482129;32;34750;-79
2022/08/09 07:19:50;;;;;;;4.12;2.22;;;;;;;24.89;52.23;100064.28;4477084;32;33554;-79
2022/08/09 07:22:23;;;;;;;4.85;2.20;;;;;;;24.88;54.27;100067.87;4479776;32;33988;-78
2022/08/09 07:25:03;;;;;;;6.22;2.37;;;;;;;24.97;50.75;100061.09;4479102;32;33420;-79
2022/08/09 07:27:40;;;;;;;6.72;2.25;;;;;;;24.98;51.68;100062.78;4479003;32;34582;-80
2022/08/09 07:30:20;;;;;;;5.43;2.65;;;;;;;25.16;53.05;100068.69;4479010;32;33761;-79
2022/08/09 07:32:53;;;;;;;5.60;2.83;;;;;;;25.24;50.45;100063.72;4484819;32;34499;-79
2022/08/09 07:35:23;;;;;;;2.65;1.60;;;;;;;25.36;51.82;100055.88;4479137;32;33258;-78
2022/08/09 07:37:53;;;;;;;4.57;1.90;;;;;;;25.32;49.84;100053.44;4479345;32;33070;-80
2022/08/09 07:40:27;;;;;;;5.20;1.67;;;;;;;25.44;51.30;100057.06;4478637;32;34084;-80
2022/08/09 07:43:18;;;;;;;4.43;2.30;;;;;;;25.63;51.74;100059.25;4478569;32;33895;-78
2022/08/09 07:45:56;;;;;;;7.30;3.35;;;;;;;25.20;50.11;100056.06;4479063;32;33572;-79
2022/08/09 07:48:30;;;;;;;5.22;2.10;;;;;;;25.61;49.88;100057.66;4478825;32;33671;-79
2022/08/09 07:51:00;;;;;;;5.87;2.15;;;;;;;25.63;48.10;100053.94;4484087;32;33890;-79
2022/08/09 07:53:51;;;;;;;4.32;2.17;;;;;;;25.74;49.50;100061.19;4477917;32;33736;-78
2022/08/09 07:56:36;;;;;;;4.05;1.92;;;;;;;25.85;47.38;100055.09;4478903;32;34295;-79
2022/08/09 07:59:19;;;;;;;9.27;2.47;;;;;;;25.79;48.35;100064.37;4478879;32;33901;-78
2022/08/09 08:02:03;;;;;;;4.07;2.37;;;;;;;25.92;46.85;100061.72;4479004;32;34090;-80
2022/08/09 08:04:33;;;;;;;3.60;2.12;;;;;;;25.98;46.06;100063.09;4478773;32;33848;-78
2022/08/09 08:07:03;;;;;;;6.62;2.62;;;;;;;26.12;45.57;100060.25;4478609;32;33181;-79
2022/08/09 08:09:52;;;;;;;6.47;2.53;;;;;;;25.94;46.49;100065.09;4484295;32;34704;-79
2022/08/09 08:12:36;;;;;;;3.40;1.95;;;;;;;25.95;45.99;100069.44;4483240;32;33774;-80
2022/08/09 08:15:16;;;;;;;4.15;1.80;;;;;;;26.17;45.94;100059.00;4478473;32;33501;-78
2022/08/09 08:17:46;;;;;;;4.75;2.12;;;;;;;26.17;45.95;100063.47;4478658;32;33905;-80
2022/08/09 08:20:27;;;;;;;3.28;2.08;;;;;;;26.26;44.86;100060.13;4478563;32;33741;-79
2022/08/09 08:23:02;;;;;;;3.67;1.90;;;;;;;26.17;45.31;100058.16;4478750;32;33646;-79
2022/08/09 08:25:46;;;;;;;6.95;2.62;;;;;;;26.38;44.50;100056.56;4478383;32;33188;-79
2022/08/09 08:28:23;;;;;;;6.12;2.20;;;;;;;26.32;44.59;100051.72;4478379;32;33376;-79
2022/08/09 08:31:02;;;;;;;3.85;1.83;;;;;;;26.05;45.39;100053.72;4483567;32;34743;-79
2022/08/09 08:33:44;;;;;;;4.93;2.33;;;;;;;26.47;43.26;100052.38;4478441;32;33880;-78
2022/08/09 08:36:24;;;;;;;3.70;2.00;;;;;;;26.18;45.16;100049.19;4478574;32;34591;-78
2022/08/09 08:38:58;;;;;;;3.53;1.70;;;;;;;26.31;46.18;100052.69;4478285;32;33892;-80
2022/08/09 08:41:28;;;;;;;5.05;2.40;;;;;;;26.69;43.51;100049.00;4477364;32;33883;-80
2022/08/09 08:44:18;;;;;;;3.87;1.92;;;;;;;26.45;44.13;100056.12;4477993;32;34719;-79
2022/08/09 08:47:01;;;;;;;6.10;2.35;;;;;;;26.87;42.58;100052.12;4478215;32;33964;-79
2022/08/09 08:49:41;;;;;;;3.50;1.65;;;;;;;26.60;44.58;100047.03;4483834;32;33349;-80
2022/08/09 08:52:20;;;;;;;4.35;1.92;;;;;;;26.95;43.89;100049.72;4483573;32;33660;-78
2022/08/09 08:55:10;;;;;;;4.18;2.03;;;;;;;26.88;44.14;100053.81;4480190;32;34644;-80
2022/08/09 08:57:43;;;;;;;3.40;1.85;;;;;;;26.99;43.71;100047.66;4480205;32;34688;-80
2022/08/09 09:00:26;;;;;;;4.60;1.73;;;;;;;26.93;44.08;100053.47;4480253;32;33061;-79
2022/08/09 09:03:04;;;;;;;2.83;1.48;;;;;;;27.51;41.63;100043.69;4480363;32;33980;-80
2022/08/09 09:05:40;;;;;;;5.03;2.72;;;;;;;27.59;42.06;100046.59;4480557;32;34699;-80
2022/08/09 09:08:33;;;;;;;4.47;1.98;;;;;;;27.58;42.79;100042.22;4469950;32;33705;-79
2022/08/09 09:11:10;;;;;;;4.62;2.20;;;;;;;27.76;43.20;100045.25;4486102;32;33190;-79
2022/08/09 09:13:49;;;;;;;3.30;2.03;;;;;;;27.79;41.76;100044.19;4485782;32;33630;-80
2022/08/09 09:16:28;;;;;;;3.00;2.20;;;;;;;27.63;41.49;100040.03;4480255;32;33992;-79
2022/08/09 09:19:01;;;;;;;3.83;2.03;;;;;;;27.47;42.84;100042.22;4479884;32;33793;-79
2022/08/09 09:22:00;;;;;;;;;;;;;;;27.49;41.55;100040.28;4480162;32;33212;-80
2022/08/09 09:24:35;;;;;;;3.62;2.00;;;;;;;27.54;43.08;100045.25;4480645;32;33860;-79
2022/08/09 09:27:08;;;;;;;4.37;2.08;;;;;;;27.70;43.18;100042.25;4480233;32;33575;-79
2022/08/09 09:29:49;;;;;;;4.25;2.00;;;;;;;28.07;42.42;100045.50;4480526;32;34399;-79
2022/08/09 09:32:38;;;;;;;5.47;2.35;;;;;;;28.12;41.06;100045.97;4485786;32;33491;-79
2022/08/09 09:35:11;;;;;;;3.20;1.62;;;;;;;27.73;41.84;100040.16;4482846;32;33821;-81
2022/08/09 09:37:45;;;;;;;3.95;1.90;;;;;;;28.06;41.12;100042.00;4479723;32;34930;-78
2022/08/09 09:40:15;;;;;;;3.15;1.90;;;;;;;28.36;41.43;100042.28;4479655;31;33803;-80
2022/08/09 09:42:55;;;;;;;3.97;1.85;;;;;;;28.57;40.89;100048.56;4479602;32;33335;-79
2022/08/09 09:45:24;;;;;;;4.07;2.35;;;;;;;28.36;40.76;100045.78;4482634;32;34219;-79
2022/08/09 09:48:03;;;;;;;5.10;2.20;;;;;;;28.71;38.57;100039.41;4485374;32;34739;-78
2022/08/09 09:50:44;;;;;;;4.60;1.67;;;;;;;28.17;39.73;100045.59;4485594;32;33746;-79
2022/08/09 09:53:20;;;;;;;5.62;2.15;;;;;;;28.60;39.97;100042.12;4479873;32;33269;-81
2022/08/09 09:56:09;;;;;;;5.00;1.90;;;;;;;28.64;38.36;100044.41;4479695;32;34633;-78
2022/08/09 09:58:48;;;;;;;4.28;2.10;;;;;;;28.66;39.11;100044.28;4479776;32;34869;-79
2022/08/09 10:01:22;;;;;;;3.67;1.58;;;;;;;29.14;37.98;100044.66;4479606;32;33822;-80
2022/08/09 10:04:06;;;;;;;3.50;1.30;;;;;;;29.42;38.17;100041.44;4481078;32;34110;-79
2022/08/09 10:06:40;;;;;;;5.45;1.67;;;;;;;29.18;38.02;100042.56;4479345;32;33946;-79
2022/08/09 10:09:12;;;;;;;5.05;1.52;;;;;;;29.30;37.96;100033.50;4484656;32;34500;-79
2022/08/09 10:12:00;;;;;;;3.70;1.47;;;;;;;29.24;38.18;100036.72;4479089;32;33574;-80
2022/08/09 10:14:42;;;;;;;3.35;1.60;;;;;;;29.44;37.28;100036.81;4480012;32;34013;-81
2022/08/09 10:17:18;;;;;;;5.82;1.80;;;;;;;29.48;37.31;100033.75;4479066;32;34666;-80
2022/08/09 10:20:24;;;;;;;3.80;1.58;;;;;;;29.76;37.26;100023.31;4479501;32;33749;-79
2022/08/09 10:23:14;;;;;;;2.75;1.50;;;;;;;29.97;36.09;100031.28;4479596;32;34203;-81
2022/08/09 10:25:48;;;;;;;3.65;1.60;;;;;;;29.96;35.33;100024.22;4479493;32;33045;-79
2022/08/09 10:28:38;;;;;;;8.43;2.40;;;;;;;29.72;36.71;100017.41;4479579;32;33884;-79
2022/08/09 10:31:08;;;;;;;;;;;;;;;29.72;36.93;100020.09;4479800;32;33991;-79
2022/08/09 10:33:56;;;;;;;;;;;;;;;30.23;36.43;100020.06;4484561;32;34854;-80
2022/08/09 10:36:38;;;;;;;;;;;;;;;30.48;35.85;100019.56;4485326;32;33261;-80
2022/08/09 10:39:11;;;;;;;;;;;;;;;30.31;35.98;100015.75;4479685;32;33851;-79
2022/08/09 10:41:46;;;;;;;;;;;;;;;30.59;34.94;100014.06;4478908;32;33624;-80
2022/08/09 10:44:17;;;;;;;;;;;;;;;30.80;35.97;100018.41;4479607;32;34849;-79
2022/08/09 10:46:57;;;;;;;;;;;;;;;30.41;35.41;100013.06;4479822;32;33350;-79
2022/08/09 10:49:35;;;;;;;;;;;;;;;30.71;35.62;100008.53;4479685;32;35117;-81
2022/08/09 10:52:33;;;;;;;;;;;;;;;30.43;35.33;100015.62;4485388;32;34794;-80
2022/08/09 10:57:56;;;;;;;;;;;;;;;30.94;33.86;100009.97;4489316;31;877552;-82
2022/08/09 11:00:35;;;;;;;;;;;;;;;30.82;34.20;100013.75;4500360;31;33247;-81
2022/08/09 11:03:07;;;;;;;;;;;;;;;30.95;34.02;100010.81;4491385;31;33851;-81
2022/08/09 11:06:14;;;;;;;;;;;;;;;30.95;33.11;100008.12;4491269;31;34402;-80
2022/08/09 11:08:44;;;;;;;;;;;;;;;30.90;33.17;99997.00;4491360;32;34653;-79
2022/08/09 11:11:18;;;;;;;;;;;;;;;30.48;36.16;99995.47;4494791;31;32868;-82
2022/08/09 11:13:48;;;;;;;;;;;;;;;30.93;35.03;100002.94;4508172;31;34695;-80
2022/08/09 11:16:35;;;;;;;;;;;;;;;31.11;34.87;100002.19;4497771;31;35013;-80
2022/08/09 11:19:05;;;;;;;;;;;;;;;31.24;33.30;100005.38;4494204;31;33667;-80
2022/08/09 11:21:51;;;;;;;;;;;;;;;31.25;33.69;100001.72;4493802;31;33427;-81
2022/08/09 11:24:47;;;;;;;;;;;;;;;31.34;31.65;100005.34;4490844;32;33832;-80
2022/08/09 11:27:29;;;;;;;;;;;;;;;31.01;33.12;100000.37;4490820;31;35109;-80
2022/08/09 11:30:30;;;;;;;;;;;;;;;31.03;34.30;99987.69;4485527;31;34711;-81
2022/08/09 11:33:03;;;;;;;;;;;;;;;31.21;34.06;99994.97;4480712;32;33089;-79
2022/08/09 11:35:32;;;;;;;;;;;;;;;31.39;34.01;99987.88;4480977;32;34066;-81
2022/08/09 11:38:19;;;;;;;;;;;;;;;31.20;32.84;99991.44;4483675;32;34184;-79
2022/08/09 11:40:49;;;;;;;;;;;;;;;31.12;33.04;99987.78;4484859;31;33911;-79
2022/08/09 11:43:38;;;;;;;;;;;;;;;31.24;32.30;99983.94;4487813;32;34002;-80
2022/08/09 11:46:08;;;;;;;;;;;;;;;31.43;33.00;99988.41;4490858;31;34278;-82
2022/08/09 11:48:47;;;;;;;;;;;;;;;31.34;33.26;99990.12;4489962;32;33499;-80
2022/08/09 11:51:19;;;;;;;;;;;;;;;31.40;32.06;99983.34;4482148;32;34015;-79
2022/08/09 11:54:16;;;;;;;;;;;;;;;31.09;32.23;99982.72;4487948;32;33474;-80
2022/08/09 11:57:11;;;;;;;;;;;;;;;30.92;32.64;99990.50;4480187;32;34251;-81
2022/08/09 11:59:40;;;;;;;;;;;;;;;31.24;32.96;99978.56;4491272;32;34683;-80
2022/08/09 12:02:12;;;;;;;;;;;;;;;31.38;31.95;99979.94;4489221;32;34679;-79
2022/08/09 12:05:01;;;;;;;;;;;;;;;31.28;32.08;99974.62;4475015;32;32992;-81
2022/08/09 12:07:33;;;;;;;;;;;;;;;31.53;32.19;99977.66;4481326;32;34013;-79
2022/08/09 12:10:10;;;;;;;;;;;;;;;30.74;33.29;99984.19;4480395;32;34204;-79
2022/08/09 12:12:59;;;;;;;;;;;;;;;30.97;33.47;99972.16;4480982;32;33974;-82
2022/08/09 12:15:31;;;;;;;;;;;;;;;31.17;32.75;99975.66;4486022;32;34055;-81
2022/08/09 12:18:20;;;;;;;;;;;;;;;31.20;33.39;99971.84;4485420;32;33958;-79
2022/08/09 12:20:58;;;;;;;;;;;;;;;31.49;32.94;99976.28;4480301;32;34294;-81
2022/08/09 12:23:30;;;;;;;;;;;;;;;31.30;30.97;99967.28;4480112;32;33883;-82
2022/08/09 12:26:19;;;;;;;;;;;;;;;30.99;32.63;99967.50;4480547;32;33300;-80
2022/08/09 12:28:54;;;;;;;;;;;;;;;31.28;31.70;99966.56;4480200;32;34075;-81